createdAt,value
2023-04-11T00:01:41.133Z,5.60
2023-04-11T00:06:43.981Z,5.60
2023-04-11T00:11:47.993Z,6.60
2023-04-11T00:16:53.545Z,5.70
2023-04-11T00:21:58.366Z,5.43
2023-04-11T00:27:02.399Z,5.17
2023-04-11T00:32:05.544Z,5.50
2023-04-11T00:37:08.328Z,5.40
2023-04-11T00:42:12.762Z,5.70
2023-04-11T00:47:15.794Z,5.50
2023-04-11T00:52:19.380Z,5.73
2023-04-11T00:57:25.943Z,5.17
2023-04-11T01:02:29.634Z,5.43
2023-04-11T01:07:33.834Z,5.37
2023-04-11T01:12:39.113Z,5.60
2023-04-11T01:17:42.487Z,5.67
2023-04-11T01:22:45.644Z,5.37
2023-04-11T01:27:49.861Z,5.57
2023-04-11T01:32:52.631Z,6.10
2023-04-11T01:37:55.553Z,5.40
2023-04-11T01:43:01.824Z,6.30
2023-04-11T01:48:08.315Z,5.70
2023-04-11T01:53:11.175Z,5.80
2023-04-11T01:58:15.268Z,5.57
2023-04-11T02:03:20.937Z,5.80
2023-04-11T02:08:23.857Z,5.97
2023-04-11T02:13:27.961Z,5.70
2023-04-11T02:18:30.661Z,5.97
2023-04-11T02:23:34.891Z,5.33
2023-04-11T02:28:39.026Z,5.60
2023-04-11T02:33:41.667Z,5.17
2023-04-11T02:38:44.299Z,5.03
2023-04-11T02:43:48.267Z,5.30
2023-04-11T02:48:50.960Z,4.67
2023-04-11T02:53:53.703Z,4.93
2023-04-11T02:58:58.110Z,5.60
2023-04-11T03:04:01.399Z,5.17
2023-04-11T03:09:04.851Z,5.37
2023-04-11T03:14:08.893Z,5.13
2023-04-11T03:19:11.540Z,5.50
2023-04-11T03:24:14.189Z,5.23
2023-04-11T03:29:18.221Z,5.30
2023-04-11T03:34:21.865Z,4.77
2023-04-11T03:39:24.688Z,5.40
2023-04-11T03:44:28.723Z,5.33
2023-04-11T03:49:31.360Z,6.00
2023-04-11T03:54:34.297Z,5.57
2023-04-11T03:59:38.414Z,5.80
2023-04-11T04:04:43.452Z,6.33
2023-04-11T04:09:46.306Z,6.13
2023-04-11T04:14:50.545Z,9.50
2023-04-11T04:19:53.213Z,6.90
2023-04-11T04:24:58.106Z,7.27
2023-04-11T04:30:03.994Z,6.73
2023-04-11T04:35:07.978Z,6.80
2023-04-11T04:40:13.308Z,7.17
2023-04-11T04:45:17.400Z,7.63
2023-04-11T04:50:20.476Z,6.77
2023-04-11T04:55:23.178Z,7.10
2023-04-11T05:00:28.174Z,7.93
2023-04-11T05:05:30.825Z,7.70
2023-04-11T05:10:33.544Z,8.00
2023-04-11T05:15:37.592Z,7.97
2023-04-11T05:20:40.318Z,8.17
2023-04-11T05:25:42.949Z,9.60
2023-04-11T05:30:47.090Z,11.70
2023-04-11T05:35:49.822Z,8.43
2023-04-11T05:40:52.530Z,7.57
2023-04-11T05:45:56.533Z,6.43
2023-04-11T05:50:59.579Z,6.77
2023-04-11T05:56:02.261Z,7.27
2023-04-11T06:01:07.413Z,7.53
2023-04-11T06:06:10.317Z,7.67
2023-04-11T06:11:13.098Z,7.67
2023-04-11T06:16:19.948Z,7.90
2023-04-11T06:21:22.589Z,7.80
2023-04-11T06:26:25.383Z,8.40
2023-04-11T06:31:29.489Z,8.27
2023-04-11T06:36:32.581Z,9.10
2023-04-11T06:41:36.187Z,8.67
2023-04-11T06:46:40.388Z,8.30
2023-04-11T06:51:42.995Z,9.23
2023-04-11T06:56:45.753Z,8.93
2023-04-11T07:01:50.663Z,8.73
2023-04-11T07:06:53.442Z,9.00
2023-04-11T07:11:56.218Z,8.33
2023-04-11T07:17:01.326Z,8.27
2023-04-11T07:22:05.236Z,7.17
2023-04-11T07:27:10.164Z,5.50
2023-04-11T07:32:25.510Z,5.47
2023-04-11T07:37:30.947Z,6.10
2023-04-11T07:42:33.739Z,4.50
2023-04-11T07:47:37.780Z,4.10
2023-04-11T07:52:40.689Z,3.47
2023-04-11T07:57:43.347Z,3.67
2023-04-11T08:02:54.024Z,3.10
2023-04-11T08:07:59.481Z,2.60
2023-04-11T08:13:12.502Z,3.67
2023-04-11T08:18:21.653Z,2.40
2023-04-11T08:23:25.365Z,2.70
2023-04-11T08:28:28.739Z,2.70
2023-04-11T08:33:37.429Z,2.67
2023-04-11T08:44:36.180Z,2.60
2023-04-11T08:49:50.039Z,2.17
2023-04-11T08:55:08.875Z,2.83
2023-04-11T09:00:46.038Z,2.67
2023-04-11T09:06:40.759Z,2.03
2023-04-11T09:12:14.984Z,2.20
2023-04-11T09:17:23.799Z,2.23
2023-04-11T10:00:47.130Z,1.60
2023-04-11T10:07:25.986Z,1.52
2023-04-11T10:20:02.880Z,1.65
2023-04-11T10:25:53.303Z,1.55
2023-04-11T10:37:59.602Z,1.33
2023-04-11T10:44:16.582Z,1.63
2023-04-11T11:08:42.455Z,1.00
2023-04-11T11:14:16.272Z,1.15
2023-04-11T11:19:37.806Z,1.40
2023-04-11T11:56:14.181Z,1.27
2023-04-11T12:01:55.333Z,1.13
2023-04-11T12:07:15.249Z,1.13
2023-04-11T12:18:48.842Z,1.00
2023-04-11T12:24:07.615Z,1.07
2023-04-11T13:11:43.192Z,1.00
2023-04-11T13:17:02.182Z,1.08
2023-04-11T13:22:04.968Z,1.20
2023-04-11T13:27:09.706Z,1.10
2023-04-11T13:32:12.626Z,1.25
2023-04-11T13:37:15.494Z,1.10
2023-04-11T13:42:21.642Z,1.15
2023-04-11T13:47:25.065Z,1.20
2023-04-11T13:52:28.491Z,1.30
2023-04-11T13:57:32.869Z,1.45
2023-04-11T14:02:39.183Z,1.30
2023-04-11T14:07:42.614Z,1.15
2023-04-11T14:12:51.495Z,1.23
2023-04-11T14:17:55.571Z,0.93
2023-04-11T14:22:58.866Z,0.80
2023-04-11T14:28:03.568Z,0.80
2023-04-11T14:33:06.593Z,1.00
2023-04-11T14:38:09.568Z,1.17
2023-04-11T14:43:16.325Z,1.10
2023-04-11T14:48:22.435Z,1.60
2023-04-11T14:53:28.684Z,1.90
2023-04-11T14:58:36.600Z,1.58
2023-04-11T15:03:41.891Z,1.08
2023-04-11T15:08:47.104Z,1.08
2023-04-11T15:13:52.939Z,1.20
2023-04-11T15:18:56.081Z,1.07
2023-04-11T15:23:59.759Z,1.10
2023-04-11T15:29:04.817Z,1.10
2023-04-11T15:34:08.546Z,0.80
2023-04-11T15:39:13.548Z,0.70
2023-04-11T15:44:17.639Z,0.70
2023-04-11T15:49:20.459Z,0.90
2023-04-11T15:54:23.130Z,0.82
2023-04-11T15:59:27.495Z,0.80
2023-04-11T16:04:30.569Z,1.17
2023-04-11T16:09:33.848Z,1.20
2023-04-11T16:14:38.144Z,1.00
2023-04-11T16:19:41.314Z,1.00
2023-04-11T16:24:45.294Z,1.20
2023-04-11T16:29:49.264Z,1.63
2023-04-11T16:34:54.767Z,1.30
2023-04-11T16:39:57.820Z,1.20
2023-04-11T16:45:01.829Z,1.35
2023-04-11T16:50:05.749Z,1.10
2023-04-11T16:55:09.294Z,1.25
2023-04-11T17:00:16.987Z,1.45
2023-04-11T17:05:19.866Z,1.50
2023-04-11T17:10:22.542Z,1.20
2023-04-11T17:15:26.715Z,1.50
2023-04-11T17:20:29.549Z,1.40
2023-04-11T17:25:32.332Z,1.40
2023-04-11T17:30:36.552Z,2.00
2023-04-11T17:35:39.489Z,1.40
2023-04-11T17:40:42.329Z,1.50
2023-04-11T17:45:48.006Z,1.80
2023-04-11T17:50:52.671Z,1.30
2023-04-11T17:55:55.372Z,1.87
2023-04-11T18:00:59.616Z,1.50
2023-04-11T18:06:02.365Z,1.63
2023-04-11T18:11:05.234Z,1.50
2023-04-11T18:16:10.988Z,1.47
2023-04-11T18:21:16.089Z,1.87
2023-04-11T18:26:24.469Z,2.10
2023-04-11T18:31:36.399Z,1.77
2023-04-11T18:36:56.767Z,1.90
2023-04-11T19:00:18.476Z,1.50
2023-04-11T19:05:25.064Z,1.30
2023-04-11T19:10:28.442Z,1.30
2023-04-11T19:15:32.516Z,1.30
2023-04-11T19:20:36.567Z,1.50
2023-04-11T19:25:40.600Z,1.20
2023-04-11T19:30:44.645Z,1.43
2023-04-11T19:35:47.624Z,1.60
2023-04-11T19:40:50.337Z,1.20
2023-04-11T19:45:55.068Z,1.40
2023-04-11T19:50:57.797Z,1.53
2023-04-11T19:56:00.440Z,1.37
2023-04-11T20:01:04.929Z,1.63
2023-04-11T20:06:09.483Z,2.23
2023-04-11T20:11:15.537Z,1.50
2023-04-11T20:16:22.033Z,1.87
2023-04-11T20:21:24.725Z,1.83
2023-04-11T20:26:27.732Z,1.87
2023-04-11T20:31:31.769Z,1.97
2023-04-11T20:36:36.078Z,2.40
2023-04-11T20:41:40.402Z,2.60
2023-04-11T20:46:45.109Z,2.10
2023-04-11T20:51:47.929Z,2.30
2023-04-11T20:56:52.384Z,2.10
2023-04-11T21:01:56.470Z,2.93
2023-04-11T21:06:59.473Z,2.70
2023-04-11T21:12:02.327Z,2.10
2023-04-11T21:17:07.393Z,2.47
2023-04-11T21:22:10.334Z,2.87
2023-04-11T21:27:13.014Z,3.03
2023-04-11T21:32:17.054Z,3.27
2023-04-11T21:37:19.824Z,2.43
2023-04-11T21:42:22.520Z,2.60
2023-04-11T21:47:26.672Z,2.70
2023-04-11T21:52:29.416Z,4.10
2023-04-11T21:57:33.770Z,2.83
2023-04-11T22:02:38.436Z,3.10
2023-04-11T22:07:47.625Z,2.70
2023-04-11T22:12:50.577Z,3.00
2023-04-11T22:17:56.394Z,2.40
2023-04-11T22:22:59.350Z,3.70
2023-04-11T22:28:02.213Z,3.33
2023-04-11T22:33:06.482Z,3.20
2023-04-11T22:38:09.322Z,2.80
2023-04-11T22:43:12.283Z,3.40
2023-04-11T22:48:16.242Z,3.17
2023-04-11T22:53:18.885Z,3.03
2023-04-11T22:58:21.590Z,2.90
2023-04-11T23:03:25.647Z,3.00
2023-04-11T23:08:28.348Z,2.90
2023-04-11T23:13:31.029Z,3.07
2023-04-11T23:18:35.003Z,3.43
2023-04-11T23:23:38.112Z,3.17
2023-04-11T23:28:40.772Z,3.63
2023-04-11T23:33:45.135Z,3.27
2023-04-11T23:38:47.875Z,3.30
2023-04-11T23:43:50.643Z,2.97
2023-04-11T23:48:55.397Z,3.43
2023-04-11T23:53:58.232Z,3.43
2023-04-11T23:59:01.117Z,3.50
